Time;durP1;ratioP1;P1;durP2;ratioP2;P2;SDS_P1;SDS_P2;PMS_P1;PMS_P2;Temp;Humidity;BMP_temperature;BMP_pressure;BME280_temperature;BME280_humidity;BME280_pressure;Samples;Min_cycle;Max_cycle;Signal;HPM_P1;HPM_P2
2023/01/24 00:02:20;;;;;;;61.30;43.50;;;;;;;;;;5032270;28;20045;-75
2023/01/24 00:04:46;;;;;;;25.30;19.73;;;;;;;;;;5050271;28;20120;-74
2023/01/24 00:07:12;;;;;;;110.10;75.53;;;;;;;;;;5050053;28;20025;-75
2023/01/24 00:09:37;;;;;;;31.88;21.02;;;;;;;;;;5032319;28;20393;-75
2023/01/24 00:12:02;;;;;;;79.10;52.05;;;;;;;;;;5032497;28;20052;-75
2023/01/24 00:14:29;;;;;;;112.55;73.28;;;;;;;;;;5050235;28;20031;-75
2023/01/24 00:16:54;;;;;;;146.40;85.13;;;;;;;;;;5049888;28;20102;-73
2023/01/24 00:19:20;;;;;;;55.47;31.65;;;;;;;;;;5050209;28;20523;-75
2023/01/24 00:21:45;;;;;;;218.50;138.00;;;;;;;;;;5033152;28;20516;-77
2023/01/24 00:24:10;;;;;;;42.78;27.70;;;;;;;;;;5050618;28;20037;-77
2023/01/24 00:26:36;;;;;;;32.67;22.95;;;;;;;;;;5050233;28;20033;-67
2023/01/24 00:29:02;;;;;;;36.47;26.95;;;;;;;;;;5049614;28;20017;-67
2023/01/24 00:31:27;;;;;;;50.40;32.75;;;;;;;;;;5049630;28;20064;-67
2023/01/24 00:33:53;;;;;;;101.35;66.82;;;;;;;;;;5049498;28;20056;-67
2023/01/24 00:36:18;;;;;;;68.53;45.58;;;;;;;;;;5031635;28;20107;-70
2023/01/24 00:38:44;;;;;;;59.75;40.17;;;;;;;;;;5031583;28;20033;-76
2023/01/24 00:41:09;;;;;;;39.83;28.98;;;;;;;;;;5049093;28;20025;-66
2023/01/24 00:43:34;;;;;;;36.67;27.75;;;;;;;;;;5031868;28;20128;-67
2023/01/24 00:46:00;;;;;;;136.15;95.13;;;;;;;;;;5032055;28;20040;-67
2023/01/24 00:48:27;;;;;;;35.97;27.08;;;;;;;;;;5031338;28;20071;-64
2023/01/24 00:50:53;;;;;;;41.45;32.35;;;;;;;;;;5049781;28;20051;-65
2023/01/24 00:53:19;;;;;;;38.60;34.45;;;;;;;;;;5042038;28;20560;-66
2023/01/24 00:55:45;;;;;;;48.22;41.17;;;;;;;;;;5049160;28;20029;-64
2023/01/24 00:58:11;;;;;;;36.17;30.70;;;;;;;;;;5049570;28;20040;-65
2023/01/24 01:00:38;;;;;;;25.70;19.70;;;;;;;;;;5048687;28;20684;-65
2023/01/24 01:03:16;;;;;;;27.83;19.85;;;;;;;;;;5052024;28;20015;-64
2023/01/24 01:05:42;;;;;;;28.40;20.98;;;;;;;;;;5052013;28;20024;-65
2023/01/24 01:08:07;;;;;;;23.77;19.08;;;;;;;;;;5044713;28;20032;-66
2023/01/24 01:10:33;;;;;;;25.33;19.88;;;;;;;;;;5032375;28;20029;-67
2023/01/24 01:12:58;;;;;;;26.42;21.38;;;;;;;;;;5055402;28;20020;-68
2023/01/24 01:15:23;;;;;;;22.40;17.05;;;;;;;;;;5041708;28;20029;-66
2023/01/24 01:17:50;;;;;;;22.73;17.13;;;;;;;;;;5044786;28;20111;-67
2023/01/24 01:20:15;;;;;;;21.00;16.95;;;;;;;;;;5047836;28;20025;-67
2023/01/24 01:22:40;;;;;;;22.10;16.27;;;;;;;;;;5049193;28;20135;-66
2023/01/24 01:25:06;;;;;;;21.38;15.05;;;;;;;;;;5031536;28;20064;-66
2023/01/24 01:27:31;;;;;;;20.77;14.88;;;;;;;;;;5014845;28;20040;-66
2023/01/24 01:29:57;;;;;;;20.05;14.65;;;;;;;;;;5031367;28;20029;-66
2023/01/24 01:32:22;;;;;;;18.48;14.10;;;;;;;;;;5031380;28;20191;-67
2023/01/24 01:34:47;;;;;;;18.10;13.73;;;;;;;;;;5047754;28;20690;-68
2023/01/24 01:37:13;;;;;;;19.77;14.80;;;;;;;;;;5049521;28;20025;-67
2023/01/24 01:39:39;;;;;;;18.80;15.15;;;;;;;;;;5051677;28;20039;-68
2023/01/24 01:42:04;;;;;;;16.35;13.30;;;;;;;;;;5051755;28;20025;-68
2023/01/24 01:44:49;;;;;;;19.50;14.15;;;;;;;;;;5052900;28;20033;-69
2023/01/24 01:47:23;;;;;;;19.33;14.32;;;;;;;;;;5052322;28;20491;-68
2023/01/24 01:49:58;;;;;;;18.30;14.10;;;;;;;;;;5052645;28;20364;-68
2023/01/24 01:52:26;;;;;;;20.27;14.05;;;;;;;;;;5053513;28;20055;-68
2023/01/24 01:54:53;;;;;;;20.80;14.93;;;;;;;;;;5035284;28;20025;-67
2023/01/24 01:57:22;;;;;;;19.60;15.05;;;;;;;;;;5052325;28;20075;-68
2023/01/24 01:59:49;;;;;;;;;;;;;;;;;;5051960;28;20443;-68
2023/01/24 02:02:16;;;;;;;20.10;15.30;;;;;;;;;;5050659;28;19921;-68
2023/01/24 02:04:45;;;;;;;21.10;14.98;;;;;;;;;;5052254;28;20271;-68
2023/01/24 02:07:16;;;;;;;20.83;14.10;;;;;;;;;;5050733;28;20033;-67
2023/01/24 02:09:42;;;;;;;19.25;15.38;;;;;;;;;;5044042;28;20100;-68
2023/01/24 02:12:11;;;;;;;19.77;15.15;;;;;;;;;;5033613;28;20140;-68
2023/01/24 02:17:22;;;;;;;20.48;14.48;;;;;;;;;;5033730;28;20045;-67
2023/01/24 02:20:00;;;;;;;19.90;13.00;;;;;;;;;;5052256;28;20025;-68
2023/01/24 02:22:32;;;;;;;17.13;12.82;;;;;;;;;;5052211;28;20278;-67
2023/01/24 02:25:18;;;;;;;20.50;14.60;;;;;;;;;;5033568;28;20029;-67
2023/01/24 02:27:43;;;;;;;18.02;13.07;;;;;;;;;;5016793;28;20055;-68
2023/01/24 02:30:09;;;;;;;21.63;14.05;;;;;;;;;;5051905;28;20032;-68
2023/01/24 02:32:34;;;;;;;21.33;14.27;;;;;;;;;;5033918;28;20086;-68
2023/01/24 02:35:01;;;;;;;18.05;13.88;;;;;;;;;;5033975;28;20037;-68
2023/01/24 02:37:27;;;;;;;19.27;13.90;;;;;;;;;;5051564;28;20029;-64
2023/01/24 02:40:00;;;;;;;17.60;13.15;;;;;;;;;;5033962;28;20033;-67
2023/01/24 02:42:29;;;;;;;20.50;14.40;;;;;;;;;;5033187;28;20035;-66
2023/01/24 02:45:09;;;;;;;17.42;13.15;;;;;;;;;;5033517;28;20138;-69
2023/01/24 02:47:41;;;;;;;15.80;12.57;;;;;;;;;;5051726;28;20021;-70
2023/01/24 02:50:09;;;;;;;17.65;13.25;;;;;;;;;;5051186;28;20036;-76
2023/01/24 02:55:18;;;;;;;15.70;12.30;;;;;;;;;;5033973;28;20095;-74
2023/01/24 03:00:27;;;;;;;17.38;12.70;;;;;;;;;;5033553;28;20025;-75
2023/01/24 03:02:54;;;;;;;17.60;12.13;;;;;;;;;;5033795;28;20043;-68
2023/01/24 03:05:19;;;;;;;15.95;12.15;;;;;;;;;;5034208;28;20029;-76
2023/01/24 03:07:44;;;;;;;13.82;11.18;;;;;;;;;;5034028;28;20139;-75
2023/01/24 03:10:14;;;;;;;17.77;12.50;;;;;;;;;;5034188;28;20029;-75
2023/01/24 03:34:50;;;;;;;12.80;10.00;;;;;;;;;;5033206;28;20049;-76
2023/01/24 03:40:08;;;;;;;14.45;10.45;;;;;;;;;;5033516;28;20045;-76
2023/01/24 03:42:34;;;;;;;13.05;10.15;;;;;;;;;;5033289;28;20448;-78
2023/01/24 03:45:00;;;;;;;12.35;10.27;;;;;;;;;;5034142;28;20495;-78
2023/01/24 03:47:29;;;;;;;15.35;9.85;;;;;;;;;;5033773;28;20067;-78
2023/01/24 03:52:38;;;;;;;13.43;9.80;;;;;;;;;;5051818;28;20051;-75
2023/01/24 03:55:07;;;;;;;17.98;11.70;;;;;;;;;;5016658;28;20377;-75
2023/01/24 03:57:35;;;;;;;16.10;11.63;;;;;;;;;;5016536;28;20033;-75
2023/01/24 04:00:06;;;;;;;14.40;10.43;;;;;;;;;;5032111;28;20395;-76
2023/01/24 04:02:42;;;;;;;14.70;11.30;;;;;;;;;;5050075;28;20455;-75
2023/01/24 04:05:13;;;;;;;15.25;11.88;;;;;;;;;;5032375;28;20124;-75
2023/01/24 04:07:41;;;;;;;13.63;10.25;;;;;;;;;;5032815;28;20481;-75
2023/01/24 04:10:07;;;;;;;14.75;10.90;;;;;;;;;;5032852;28;20087;-73
2023/01/24 04:12:38;;;;;;;14.60;10.48;;;;;;;;;;5033058;28;20708;-75
2023/01/24 04:15:04;;;;;;;13.27;10.35;;;;;;;;;;5033076;28;20037;-75
2023/01/24 04:17:30;;;;;;;16.15;10.88;;;;;;;;;;5032856;28;20128;-75
2023/01/24 04:19:58;;;;;;;14.40;10.05;;;;;;;;;;5016533;28;20043;-77
2023/01/24 04:22:24;;;;;;;14.68;10.40;;;;;;;;;;5016123;28;20043;-74
2023/01/24 04:24:51;;;;;;;13.00;9.68;;;;;;;;;;5032862;28;20040;-75
2023/01/24 04:27:18;;;;;;;13.95;10.15;;;;;;;;;;5032480;28;20033;-75
2023/01/24 04:30:05;;;;;;;12.60;9.70;;;;;;;;;;5049630;28;20045;-74
2023/01/24 04:32:34;;;;;;;10.18;8.70;;;;;;;;;;5049429;28;20029;-74
2023/01/24 04:35:04;;;;;;;10.48;8.63;;;;;;;;;;5049686;28;20029;-74
2023/01/24 04:37:46;;;;;;;10.45;8.80;;;;;;;;;;5049714;28;20036;-74
2023/01/24 04:40:14;;;;;;;10.13;8.30;;;;;;;;;;5048472;28;20033;-74
2023/01/24 04:42:40;;;;;;;9.73;7.70;;;;;;;;;;5044848;28;20048;-74
2023/01/24 04:45:06;;;;;;;9.48;8.00;;;;;;;;;;5040314;28;20357;-72
2023/01/24 04:47:32;;;;;;;9.52;7.90;;;;;;;;;;5032143;28;20025;-75
2023/01/24 04:49:57;;;;;;;8.05;7.25;;;;;;;;;;5032335;28;20060;-75
2023/01/24 04:52:22;;;;;;;8.10;7.30;;;;;;;;;;5033994;28;20044;-75
2023/01/24 04:54:59;;;;;;;8.98;7.85;;;;;;;;;;5048799;28;20749;-75
2023/01/24 04:57:24;;;;;;;7.35;6.65;;;;;;;;;;5048053;28;20037;-75
2023/01/24 04:59:50;;;;;;;8.32;6.90;;;;;;;;;;5047642;28;20033;-74
2023/01/24 05:02:16;;;;;;;8.68;7.45;;;;;;;;;;5030873;28;20033;-75
2023/01/24 05:04:43;;;;;;;9.75;7.03;;;;;;;;;;5031149;28;20120;-75
2023/01/24 05:07:11;;;;;;;8.40;7.40;;;;;;;;;;5031134;28;20116;-67
2023/01/24 05:09:37;;;;;;;17.10;14.40;;;;;;;;;;5031277;28;20116;-67
2023/01/24 05:12:06;;;;;;;249.55;136.23;;;;;;;;;;5015088;28;20516;-67
2023/01/24 05:14:32;;;;;;;233.48;118.28;;;;;;;;;;5050622;28;20064;-67
2023/01/24 05:16:58;;;;;;;128.13;60.00;;;;;;;;;;5034478;28;20052;-69
2023/01/24 05:19:24;;;;;;;162.48;97.10;;;;;;;;;;5035030;28;20025;-63
2023/01/24 05:21:49;;;;;;;26.40;17.02;;;;;;;;;;5052893;28;20029;-64
2023/01/24 05:24:15;;;;;;;212.27;120.18;;;;;;;;;;5034757;28;20021;-64
2023/01/24 05:26:40;;;;;;;368.48;181.40;;;;;;;;;;5035201;28;20469;-65
2023/01/24 05:29:07;;;;;;;221.20;109.43;;;;;;;;;;5035287;28;20100;-65
2023/01/24 05:31:35;;;;;;;38.80;23.42;;;;;;;;;;5035315;28;20127;-74
2023/01/24 05:34:00;;;;;;;43.45;27.40;;;;;;;;;;5035309;28;20120;-73
2023/01/24 05:36:27;;;;;;;43.63;27.80;;;;;;;;;;5034182;28;20094;-73
2023/01/24 05:38:54;;;;;;;26.92;19.17;;;;;;;;;;5051625;28;20036;-69
2023/01/24 05:41:21;;;;;;;20.13;13.25;;;;;;;;;;5052401;28;20037;-76
2023/01/24 05:43:50;;;;;;;19.60;14.18;;;;;;;;;;5054372;28;20021;-73
2023/01/24 05:46:18;;;;;;;13.77;10.90;;;;;;;;;;5025934;28;20559;-70
2023/01/24 05:48:53;;;;;;;48.22;32.47;;;;;;;;;;5049631;28;20521;-72
2023/01/24 05:51:19;;;;;;;43.75;22.58;;;;;;;;;;5037492;28;20199;-73
2023/01/24 05:53:46;;;;;;;52.38;38.60;;;;;;;;;;5055824;28;20048;-78
2023/01/24 05:56:19;;;;;;;38.28;29.85;;;;;;;;;;5057092;28;20035;-79
2023/01/24 05:58:47;;;;;;;37.55;27.58;;;;;;;;;;5057088;28;20547;-79
2023/01/24 06:01:18;;;;;;;22.25;16.50;;;;;;;;;;5056030;28;20067;-79
2023/01/24 06:03:45;;;;;;;19.98;17.15;;;;;;;;;;5039845;28;20032;-79
2023/01/24 06:06:12;;;;;;;22.02;16.45;;;;;;;;;;5039299;28;20071;-79
2023/01/24 06:08:37;;;;;;;15.65;13.07;;;;;;;;;;5054663;28;20185;-78
2023/01/24 06:11:12;;;;;;;21.98;17.83;;;;;;;;;;5072828;28;20821;-77
2023/01/24 06:13:38;;;;;;;15.57;13.75;;;;;;;;;;5038023;28;20035;-71
2023/01/24 06:16:05;;;;;;;14.93;11.88;;;;;;;;;;5055028;28;20020;-78
2023/01/24 06:18:30;;;;;;;20.98;17.85;;;;;;;;;;5040970;28;20426;-75
2023/01/24 06:20:56;;;;;;;39.28;30.20;;;;;;;;;;5057524;28;20016;-74
2023/01/24 06:23:26;;;;;;;23.52;16.52;;;;;;;;;;5075949;28;20025;-74
2023/01/24 06:25:55;;;;;;;29.40;22.48;;;;;;;;;;5057989;28;20035;-75
2023/01/24 06:28:20;;;;;;;27.23;21.42;;;;;;;;;;5057686;28;20029;-74
2023/01/24 06:30:59;;;;;;;34.45;24.80;;;;;;;;;;5075484;28;20047;-74
2023/01/24 06:33:57;;;;;;;27.95;19.65;;;;;;;;;;5075703;28;20074;-75
2023/01/24 06:36:37;;;;;;;33.15;23.25;;;;;;;;;;5014020;28;20037;-75
2023/01/24 06:39:03;;;;;;;47.47;33.10;;;;;;;;;;5075399;28;20471;-60
2023/01/24 06:41:28;;;;;;;30.10;21.45;;;;;;;;;;5075565;28;20028;-72
2023/01/24 06:43:54;;;;;;;19.58;14.25;;;;;;;;;;5056468;28;20012;-73
2023/01/24 06:46:19;;;;;;;15.00;11.98;;;;;;;;;;5057233;28;20031;-73
2023/01/24 06:48:44;;;;;;;26.25;19.70;;;;;;;;;;5074996;28;20111;-73
2023/01/24 06:51:13;;;;;;;24.60;18.27;;;;;;;;;;5056997;28;20103;-73
2023/01/24 06:53:39;;;;;;;21.10;15.75;;;;;;;;;;5074749;28;20543;-73
2023/01/24 06:56:05;;;;;;;19.25;14.88;;;;;;;;;;5040182;28;20025;-73
2023/01/24 06:58:31;;;;;;;19.92;14.88;;;;;;;;;;5073283;28;20458;-73
2023/01/24 07:00:56;;;;;;;15.15;11.55;;;;;;;;;;5072112;28;20024;-73
2023/01/24 07:03:21;;;;;;;21.95;16.48;;;;;;;;;;5072207;28;20028;-73
2023/01/24 07:05:47;;;;;;;26.75;19.65;;;;;;;;;;5073570;28;20060;-73
2023/01/24 07:08:12;;;;;;;22.77;16.00;;;;;;;;;;5073612;28;20062;-73
2023/01/24 07:10:38;;;;;;;23.40;17.08;;;;;;;;;;5073500;28;20064;-73
2023/01/24 07:13:04;;;;;;;29.05;24.30;;;;;;;;;;5055640;28;20082;-73
2023/01/24 07:15:29;;;;;;;25.88;21.38;;;;;;;;;;5074500;28;20024;-73
2023/01/24 07:17:55;;;;;;;98.13;66.47;;;;;;;;;;5056665;28;20527;-73
2023/01/24 07:20:20;;;;;;;56.85;42.22;;;;;;;;;;5074880;28;20045;-73
2023/01/24 07:22:46;;;;;;;42.85;29.90;;;;;;;;;;5074681;28;20031;-73
2023/01/24 07:25:14;;;;;;;29.13;22.40;;;;;;;;;;5074450;28;20027;-73
2023/01/24 07:27:39;;;;;;;28.27;22.58;;;;;;;;;;5074730;28;20032;-73
2023/01/24 07:30:05;;;;;;;22.00;17.60;;;;;;;;;;5074672;28;20103;-73
2023/01/24 07:32:30;;;;;;;25.20;18.88;;;;;;;;;;5056455;28;20441;-73
2023/01/24 07:34:56;;;;;;;22.65;16.38;;;;;;;;;;5074313;28;20465;-73
2023/01/24 07:37:23;;;;;;;17.15;15.27;;;;;;;;;;5073948;28;20032;-73
2023/01/24 07:39:48;;;;;;;15.70;13.07;;;;;;;;;;5039765;28;20066;-73
2023/01/24 07:42:13;;;;;;;19.15;14.82;;;;;;;;;;5074350;28;20106;-73
2023/01/24 07:44:38;;;;;;;21.08;15.25;;;;;;;;;;5056245;28;20158;-73
2023/01/24 07:47:04;;;;;;;18.67;15.13;;;;;;;;;;5056193;28;20028;-73
2023/01/24 07:49:29;;;;;;;23.08;18.10;;;;;;;;;;5074347;28;20032;-73
2023/01/24 07:51:54;;;;;;;16.85;12.82;;;;;;;;;;5055920;28;20031;-73
2023/01/24 07:54:20;;;;;;;18.73;13.88;;;;;;;;;;5073974;28;20032;-73
2023/01/24 07:56:46;;;;;;;18.98;16.98;;;;;;;;;;5073944;28;20115;-73
2023/01/24 07:59:12;;;;;;;15.82;13.40;;;;;;;;;;5056610;28;20063;-73
2023/01/24 08:01:37;;;;;;;18.08;14.80;;;;;;;;;;5074319;28;20064;-73
2023/01/24 08:04:02;;;;;;;16.33;13.13;;;;;;;;;;5055865;28;20440;-73
2023/01/24 08:06:28;;;;;;;16.30;13.18;;;;;;;;;;5055960;28;20043;-73
2023/01/24 08:08:53;;;;;;;15.77;13.23;;;;;;;;;;5073606;28;20032;-73
2023/01/24 08:11:19;;;;;;;16.63;13.57;;;;;;;;;;5074303;28;20039;-73
2023/01/24 08:13:44;;;;;;;15.63;13.43;;;;;;;;;;5056174;28;20028;-74
2023/01/24 08:16:10;;;;;;;21.10;16.38;;;;;;;;;;5073985;28;20024;-74
2023/01/24 08:18:39;;;;;;;29.00;24.83;;;;;;;;;;5073946;28;20539;-74
2023/01/24 08:21:04;;;;;;;16.63;14.57;;;;;;;;;;5073514;28;20107;-74
2023/01/24 08:23:30;;;;;;;17.17;14.73;;;;;;;;;;5073614;28;20565;-74
2023/01/24 08:25:59;;;;;;;15.40;12.25;;;;;;;;;;5079559;23;20112;-73
2023/01/24 08:28:24;;;;;;;19.10;15.70;;;;;;;;;;5046899;23;20148;-73
2023/01/24 08:30:50;;;;;;;19.80;15.95;;;;;;;;;;5015922;28;20100;-74
2023/01/24 08:33:18;;;;;;;21.55;17.80;;;;;;;;;;5033815;28;20392;-74
2023/01/24 08:35:44;;;;;;;20.15;16.60;;;;;;;;;;5033770;28;20060;-74
2023/01/24 08:38:10;;;;;;;19.20;13.68;;;;;;;;;;5033536;28;20109;-74
2023/01/24 08:40:35;;;;;;;20.35;16.88;;;;;;;;;;5015882;28;20465;-74
2023/01/24 08:43:01;;;;;;;19.30;14.32;;;;;;;;;;5015768;28;20041;-74
2023/01/24 08:45:26;;;;;;;26.20;20.65;;;;;;;;;;5015716;28;20028;-74
2023/01/24 08:47:53;;;;;;;19.35;14.48;;;;;;;;;;5033432;28;20029;-74
2023/01/24 08:50:19;;;;;;;23.65;20.40;;;;;;;;;;5019481;28;20445;-74
2023/01/24 08:52:45;;;;;;;20.25;15.45;;;;;;;;;;5037448;28;20148;-74
2023/01/24 08:55:10;;;;;;;17.20;13.63;;;;;;;;;;5037694;28;20037;-74
2023/01/24 08:57:36;;;;;;;29.73;22.48;;;;;;;;;;5037890;28;20033;-74
2023/01/24 09:00:02;;;;;;;20.50;16.17;;;;;;;;;;5037635;28;20038;-74
2023/01/24 09:02:28;;;;;;;22.92;16.88;;;;;;;;;;5037494;28;20021;-74
2023/01/24 09:04:54;;;;;;;23.60;18.20;;;;;;;;;;5037462;28;20037;-74
2023/01/24 09:07:19;;;;;;;18.33;13.93;;;;;;;;;;5037477;28;20018;-74
2023/01/24 09:09:44;;;;;;;19.88;13.73;;;;;;;;;;5037104;28;20075;-74
2023/01/24 09:12:10;;;;;;;18.10;13.55;;;;;;;;;;5037428;28;20032;-74
2023/01/24 09:14:35;;;;;;;18.60;14.02;;;;;;;;;;5037309;28;20037;-74
2023/01/24 09:17:00;;;;;;;19.85;14.43;;;;;;;;;;5037329;28;20116;-74
2023/01/24 09:19:26;;;;;;;19.50;13.88;;;;;;;;;;5036988;28;20061;-74
2023/01/24 09:21:54;;;;;;;23.30;17.10;;;;;;;;;;5019226;28;20032;-74
2023/01/24 09:24:19;;;;;;;24.40;16.15;;;;;;;;;;5036886;28;20017;-74
2023/01/24 09:26:45;;;;;;;19.63;14.43;;;;;;;;;;5037107;28;20099;-74
2023/01/24 09:29:10;;;;;;;24.35;19.10;;;;;;;;;;5018894;28;20042;-74
2023/01/24 09:31:36;;;;;;;22.90;17.60;;;;;;;;;;5019025;28;20080;-74
2023/01/24 09:34:01;;;;;;;25.90;19.52;;;;;;;;;;5035486;28;20032;-74
2023/01/24 09:36:27;;;;;;;25.40;18.35;;;;;;;;;;5036694;28;20440;-74
2023/01/24 09:38:53;;;;;;;27.60;20.77;;;;;;;;;;5035384;28;20037;-74
2023/01/24 09:41:21;;;;;;;25.48;19.02;;;;;;;;;;5018900;28;20063;-74
2023/01/24 09:43:47;;;;;;;27.58;18.92;;;;;;;;;;5018863;28;20032;-74
2023/01/24 09:46:15;;;;;;;25.52;17.65;;;;;;;;;;5037049;28;20044;-74
2023/01/24 09:48:41;;;;;;;22.08;16.45;;;;;;;;;;5036738;28;20068;-74
2023/01/24 09:51:20;;;;;;;18.70;14.02;;;;;;;;;;5036424;28;20053;-74
2023/01/24 09:53:49;;;;;;;20.80;16.60;;;;;;;;;;5036610;28;20026;-74
2023/01/24 09:56:26;;;;;;;20.98;16.65;;;;;;;;;;5018581;28;20091;-74
2023/01/24 09:58:57;;;;;;;20.92;16.42;;;;;;;;;;5018411;28;20083;-74
2023/01/24 10:01:22;;;;;;;20.80;16.02;;;;;;;;;;5018476;28;20087;-74
2023/01/24 10:03:48;;;;;;;20.17;15.50;;;;;;;;;;5036188;28;20412;-74
2023/01/24 10:06:20;;;;;;;21.13;16.38;;;;;;;;;;5018278;28;20052;-74
2023/01/24 10:09:03;;;;;;;24.55;16.88;;;;;;;;;;5036081;28;20385;-74
2023/01/24 10:11:28;;;;;;;21.38;16.77;;;;;;;;;;5036354;28;20029;-74
2023/01/24 10:14:13;;;;;;;23.70;17.08;;;;;;;;;;5035934;28;20469;-74
2023/01/24 10:16:57;;;;;;;21.10;16.92;;;;;;;;;;5036484;28;20048;-74
2023/01/24 10:19:41;;;;;;;20.55;15.75;;;;;;;;;;5018161;28;20132;-74
2023/01/24 10:22:09;;;;;;;22.15;16.25;;;;;;;;;;5035725;28;20025;-74
2023/01/24 10:24:36;;;;;;;18.42;14.38;;;;;;;;;;5018645;28;20033;-74
2023/01/24 10:27:11;;;;;;;24.75;15.38;;;;;;;;;;5035753;28;20030;-74
2023/01/24 10:29:38;;;;;;;21.45;15.40;;;;;;;;;;5017780;28;20409;-74
2023/01/24 10:32:14;;;;;;;18.90;14.38;;;;;;;;;;5017972;28;20026;-74
2023/01/24 10:34:40;;;;;;;17.88;13.93;;;;;;;;;;5035892;28;20095;-74
2023/01/24 10:37:09;;;;;;;15.75;12.32;;;;;;;;;;5017813;28;20033;-75
2023/01/24 10:39:34;;;;;;;19.88;16.95;;;;;;;;;;5035516;28;20033;-74
2023/01/24 10:42:00;;;;;;;13.70;11.85;;;;;;;;;;5035917;28;20030;-74
2023/01/24 10:44:27;;;;;;;13.35;11.32;;;;;;;;;;5018031;28;20029;-74
2023/01/24 10:49:28;;;;;;;12.02;10.82;;;;;;;;;;5067908;22;20056;-74
2023/01/24 10:52:09;;;;;;;11.50;10.30;;;;;;;;;;5077583;28;20024;-73
2023/01/24 10:54:55;;;;;;;12.48;10.27;;;;;;;;;;5095604;28;20025;-73
2023/01/24 10:57:29;;;;;;;13.00;11.02;;;;;;;;;;5094728;28;20044;-73
2023/01/24 10:59:55;;;;;;;14.48;11.65;;;;;;;;;;5095517;28;20036;-74
2023/01/24 11:02:22;;;;;;;13.60;11.00;;;;;;;;;;5076954;28;20157;-74
2023/01/24 11:04:50;;;;;;;36.03;18.42;;;;;;;;;;5095163;28;20024;-74
2023/01/24 11:07:30;;;;;;;13.75;11.13;;;;;;;;;;5077356;28;20032;-74
2023/01/24 11:09:59;;;;;;;30.05;16.17;;;;;;;;;;5077013;28;20456;-74
2023/01/24 11:12:24;;;;;;;31.60;15.90;;;;;;;;;;5094094;28;20032;-74
2023/01/24 11:14:49;;;;;;;23.88;14.43;;;;;;;;;;5095257;28;20034;-74
2023/01/24 11:17:32;;;;;;;45.13;18.13;;;;;;;;;;5076881;28;20434;-74
2023/01/24 11:20:04;;;;;;;53.85;19.63;;;;;;;;;;5095438;28;20388;-74
2023/01/24 11:22:34;;;;;;;19.67;13.05;;;;;;;;;;5076933;28;20160;-74
2023/01/24 11:25:00;;;;;;;13.55;11.82;;;;;;;;;;5076634;28;20051;-74
2023/01/24 11:27:26;;;;;;;12.20;10.90;;;;;;;;;;5094742;28;20463;-74
2023/01/24 11:30:10;;;;;;;17.85;13.30;;;;;;;;;;5060089;28;20028;-74
2023/01/24 11:32:46;;;;;;;11.45;9.63;;;;;;;;;;5094619;28;20070;-74
2023/01/24 11:35:14;;;;;;;11.15;9.82;;;;;;;;;;5094876;28;20126;-74
2023/01/24 11:38:04;;;;;;;15.00;11.98;;;;;;;;;;5094535;28;20475;-74
2023/01/24 11:40:42;;;;;;;16.30;12.05;;;;;;;;;;5076354;28;20119;-74
2023/01/24 11:43:14;;;;;;;15.45;11.30;;;;;;;;;;5076213;28;20489;-74
2023/01/24 11:45:59;;;;;;;11.35;9.73;;;;;;;;;;5076330;28;20502;-74
2023/01/24 11:48:30;;;;;;;15.15;10.68;;;;;;;;;;5094912;28;20043;-74
2023/01/24 11:51:08;;;;;;;14.23;10.95;;;;;;;;;;5094168;28;20043;-74
2023/01/24 11:54:00;;;;;;;12.30;10.77;;;;;;;;;;5094280;28;20078;-74
2023/01/24 11:56:34;;;;;;;13.52;10.13;;;;;;;;;;5094781;28;20031;-74
2023/01/24 11:59:11;;;;;;;9.60;8.32;;;;;;;;;;5059364;28;20031;-74
2023/01/24 12:01:36;;;;;;;9.38;7.03;;;;;;;;;;5075954;28;20032;-74
2023/01/24 12:04:18;;;;;;;10.40;8.65;;;;;;;;;;5094083;28;20042;-74
2023/01/24 12:07:03;;;;;;;9.52;8.45;;;;;;;;;;5094570;28;20035;-74
2023/01/24 12:09:52;;;;;;;17.55;15.07;;;;;;;;;;5076468;28;20059;-74
2023/01/24 12:12:20;;;;;;;10.95;9.23;;;;;;;;;;5056384;28;20111;-74
2023/01/24 12:14:51;;;;;;;18.48;15.05;;;;;;;;;;5094244;28;20035;-74
2023/01/24 12:17:27;;;;;;;11.68;10.48;;;;;;;;;;5094212;28;20036;-74
2023/01/24 12:20:01;;;;;;;11.95;10.20;;;;;;;;;;5093900;28;20112;-74
2023/01/24 12:22:28;;;;;;;13.02;11.73;;;;;;;;;;5093811;28;20043;-74
2023/01/24 12:25:13;;;;;;;11.02;9.27;;;;;;;;;;5075760;28;20077;-74
2023/01/24 12:27:39;;;;;;;10.38;8.82;;;;;;;;;;5076305;28;20036;-74
2023/01/24 12:30:13;;;;;;;8.70;7.80;;;;;;;;;;5094027;28;20017;-74
2023/01/24 12:32:48;;;;;;;13.93;9.98;;;;;;;;;;5093797;28;20075;-74
2023/01/24 12:35:22;;;;;;;21.42;13.98;;;;;;;;;;5093984;28;20024;-74
2023/01/24 12:37:47;;;;;;;12.60;11.00;;;;;;;;;;5093961;28;20115;-74
2023/01/24 12:40:13;;;;;;;28.83;25.75;;;;;;;;;;5093604;28;20111;-74
2023/01/24 12:42:42;;;;;;;36.33;32.63;;;;;;;;;;5093799;28;20032;-74
2023/01/24 12:45:14;;;;;;;14.98;13.57;;;;;;;;;;5075613;28;20028;-74
2023/01/24 12:48:03;;;;;;;11.25;10.20;;;;;;;;;;5093599;28;20394;-74
2023/01/24 12:50:41;;;;;;;9.13;8.27;;;;;;;;;;5082663;28;20040;-74
2023/01/24 12:53:15;;;;;;;9.82;8.20;;;;;;;;;;5094011;28;20032;-74
2023/01/24 12:55:48;;;;;;;8.13;7.32;;;;;;;;;;5075938;28;20140;-74
2023/01/24 12:58:34;;;;;;;18.85;16.85;;;;;;;;;;5092181;28;20032;-74
2023/01/24 13:01:05;;;;;;;10.68;9.25;;;;;;;;;;5093652;28;20036;-74
2023/01/24 13:03:30;;;;;;;9.68;8.10;;;;;;;;;;5093680;28;20024;-74
2023/01/24 13:05:56;;;;;;;10.93;9.82;;;;;;;;;;5093676;28;20478;-74
2023/01/24 13:08:27;;;;;;;9.00;8.20;;;;;;;;;;5075237;28;20472;-74
2023/01/24 13:10:55;;;;;;;9.70;8.80;;;;;;;;;;5075247;28;20503;-74
2023/01/24 13:13:27;;;;;;;12.77;11.43;;;;;;;;;;5093317;28;20043;-74
2023/01/24 13:16:11;;;;;;;24.05;21.45;;;;;;;;;;5093588;28;20036;-75
2023/01/24 13:19:03;;;;;;;14.10;11.95;;;;;;;;;;5082701;22;20057;-73
2023/01/24 13:21:43;;;;;;;13.40;9.07;;;;;;;;;;5009327;28;20062;-73
2023/01/24 13:24:24;;;;;;;16.38;13.20;;;;;;;;;;5013700;28;20030;-73
2023/01/24 13:27:10;;;;;;;12.32;11.07;;;;;;;;;;4995894;28;20105;-74
2023/01/24 13:29:54;;;;;;;10.43;9.43;;;;;;;;;;4995683;28;20088;-74
2023/01/24 13:32:20;;;;;;;10.77;9.60;;;;;;;;;;4996116;28;20034;-74
2023/01/24 13:34:50;;;;;;;14.07;12.57;;;;;;;;;;4980229;28;20092;-74
2023/01/24 13:37:18;;;;;;;11.05;9.82;;;;;;;;;;4999711;28;20034;-74
2023/01/24 13:39:45;;;;;;;15.45;12.70;;;;;;;;;;5017156;28;20118;-74
2023/01/24 13:42:16;;;;;;;13.70;11.70;;;;;;;;;;4999239;28;20501;-74
2023/01/24 13:44:42;;;;;;;10.50;8.63;;;;;;;;;;4999524;28;20022;-74
2023/01/24 13:47:15;;;;;;;11.13;9.50;;;;;;;;;;4999520;28;20469;-74
2023/01/24 13:49:43;;;;;;;17.45;15.27;;;;;;;;;;5016970;28;20030;-74
2023/01/24 13:52:27;;;;;;;14.68;13.10;;;;;;;;;;4999008;28;20068;-74
2023/01/24 13:54:53;;;;;;;12.18;10.85;;;;;;;;;;4998974;28;20470;-74
2023/01/24 13:57:23;;;;;;;10.35;9.30;;;;;;;;;;5016488;28;20032;-74
2023/01/24 14:00:13;;;;;;;9.63;8.73;;;;;;;;;;5016750;28;20034;-74
2023/01/24 14:02:38;;;;;;;19.77;17.65;;;;;;;;;;4998775;28;20034;-74
2023/01/24 14:05:23;;;;;;;24.30;22.00;;;;;;;;;;4998800;28;20026;-74
2023/01/24 14:07:48;;;;;;;48.40;39.45;;;;;;;;;;4999214;28;20033;-74
2023/01/24 14:10:14;;;;;;;52.53;40.38;;;;;;;;;;5016540;28;20026;-74
2023/01/24 14:12:39;;;;;;;69.10;55.28;;;;;;;;;;5016219;28;20393;-74
2023/01/24 14:15:12;;;;;;;32.42;29.17;;;;;;;;;;4998511;28;20137;-74
2023/01/24 14:17:46;;;;;;;26.45;20.90;;;;;;;;;;4999251;28;20529;-74
2023/01/24 14:20:19;;;;;;;31.90;27.80;;;;;;;;;;4982147;28;20494;-74
2023/01/24 14:22:45;;;;;;;17.02;15.32;;;;;;;;;;5016289;28;20034;-74
2023/01/24 14:25:34;;;;;;;10.40;9.43;;;;;;;;;;5015998;28;20478;-74
2023/01/24 14:28:00;;;;;;;20.83;18.58;;;;;;;;;;5015862;28;20101;-75
2023/01/24 14:30:25;;;;;;;18.67;15.70;;;;;;;;;;5015721;28;20071;-74
2023/01/24 14:32:52;;;;;;;14.52;13.05;;;;;;;;;;5016222;28;20038;-75
2023/01/24 14:35:29;;;;;;;16.80;15.10;;;;;;;;;;4998402;28;20022;-74
2023/01/24 14:38:16;;;;;;;15.48;14.00;;;;;;;;;;5016017;28;20062;-76
2023/01/24 14:40:44;;;;;;;12.02;10.57;;;;;;;;;;4981352;28;20107;-72
2023/01/24 14:43:11;;;;;;;14.23;12.93;;;;;;;;;;5015552;28;20053;-76
2023/01/24 14:45:37;;;;;;;82.05;59.85;;;;;;;;;;5015480;28;20087;-75
2023/01/24 14:48:08;;;;;;;31.92;25.15;;;;;;;;;;4998335;28;20537;-77
2023/01/24 14:50:35;;;;;;;13.57;11.98;;;;;;;;;;5016039;28;20474;-74
2023/01/24 14:53:01;;;;;;;18.52;14.95;;;;;;;;;;4998151;28;20025;-75
2023/01/24 14:55:26;;;;;;;12.23;10.93;;;;;;;;;;5015410;28;20026;-74
2023/01/24 14:57:54;;;;;;;11.93;10.68;;;;;;;;;;5014508;28;20057;-75
2023/01/24 15:00:21;;;;;;;17.48;14.65;;;;;;;;;;5015275;28;20037;-74
2023/01/24 15:02:54;;;;;;;15.38;13.23;;;;;;;;;;5014983;28;20478;-75
2023/01/24 15:05:24;;;;;;;21.13;17.92;;;;;;;;;;5015374;28;20030;-75
2023/01/24 15:07:49;;;;;;;21.77;19.58;;;;;;;;;;4998090;28;20034;-75
2023/01/24 15:10:15;;;;;;;10.52;9.48;;;;;;;;;;4997737;28;20025;-75